sensor_id;sensor_type;location;lat;lon;timestamp;temperature;humidity
580;DHT22;276;48.392;9.950;2023-04-06T00:00:38;5.80;82.80
580;DHT22;276;48.392;9.950;2023-04-06T00:03:04;5.80;82.80
580;DHT22;276;48.392;9.950;2023-04-06T00:05:32;5.80;82.40
580;DHT22;276;48.392;9.950;2023-04-06T00:08:02;5.80;82.70
580;DHT22;276;48.392;9.950;2023-04-06T00:10:31;5.80;83.00
580;DHT22;276;48.392;9.950;2023-04-06T00:12:58;5.80;83.00
580;DHT22;276;48.392;9.950;2023-04-06T00:15:26;5.80;82.90
580;DHT22;276;48.392;9.950;2023-04-06T00:17:55;5.80;83.00
580;DHT22;276;48.392;9.950;2023-04-06T00:20:23;5.70;82.90
580;DHT22;276;48.392;9.950;2023-04-06T00:22:51;5.70;83.10
580;DHT22;276;48.392;9.950;2023-04-06T00:25:17;5.70;83.00
580;DHT22;276;48.392;9.950;2023-04-06T00:27:43;5.70;83.10
580;DHT22;276;48.392;9.950;2023-04-06T00:30:09;5.70;83.20
580;DHT22;276;48.392;9.950;2023-04-06T00:32:37;5.70;83.60
580;DHT22;276;48.392;9.950;2023-04-06T00:35:05;5.60;83.70
580;DHT22;276;48.392;9.950;2023-04-06T00:37:32;5.60;83.90
580;DHT22;276;48.392;9.950;2023-04-06T00:40:00;5.60;84.00
580;DHT22;276;48.392;9.950;2023-04-06T00:42:28;5.60;84.00
580;DHT22;276;48.392;9.950;2023-04-06T00:44:55;5.60;84.10
580;DHT22;276;48.392;9.950;2023-04-06T00:47:24;5.60;84.20
580;DHT22;276;48.392;9.950;2023-04-06T00:49:51;5.50;84.20
580;DHT22;276;48.392;9.950;2023-04-06T00:52:17;5.50;84.20
580;DHT22;276;48.392;9.950;2023-04-06T00:54:43;5.50;84.30
580;DHT22;276;48.392;9.950;2023-04-06T00:57:11;5.50;84.30
580;DHT22;276;48.392;9.950;2023-04-06T00:59:40;5.40;84.30
580;DHT22;276;48.392;9.950;2023-04-06T01:02:06;5.40;84.80
580;DHT22;276;48.392;9.950;2023-04-06T01:04:34;5.40;85.10
580;DHT22;276;48.392;9.950;2023-04-06T01:07:03;5.30;85.10
580;DHT22;276;48.392;9.950;2023-04-06T01:09:29;5.40;85.00
580;DHT22;276;48.392;9.950;2023-04-06T01:11:58;5.40;85.00
580;DHT22;276;48.392;9.950;2023-04-06T01:14:28;5.30;84.90
580;DHT22;276;48.392;9.950;2023-04-06T01:16:57;5.30;85.00
580;DHT22;276;48.392;9.950;2023-04-06T01:19:25;5.30;85.00
580;DHT22;276;48.392;9.950;2023-04-06T01:21:51;5.30;85.10
580;DHT22;276;48.392;9.950;2023-04-06T01:24:21;5.30;85.10
580;DHT22;276;48.392;9.950;2023-04-06T01:26:51;5.30;85.20
580;DHT22;276;48.392;9.950;2023-04-06T01:29:19;5.30;85.10
580;DHT22;276;48.392;9.950;2023-04-06T01:31:47;5.30;85.00
580;DHT22;276;48.392;9.950;2023-04-06T01:34:15;5.20;84.80
580;DHT22;276;48.392;9.950;2023-04-06T01:36:43;5.20;84.80
580;DHT22;276;48.392;9.950;2023-04-06T01:39:14;5.20;84.90
580;DHT22;276;48.392;9.950;2023-04-06T01:41:39;5.10;85.00
580;DHT22;276;48.392;9.950;2023-04-06T01:44:05;5.10;85.30
580;DHT22;276;48.392;9.950;2023-04-06T01:46:33;5.10;85.30
580;DHT22;276;48.392;9.950;2023-04-06T01:49:01;5.00;85.10
580;DHT22;276;48.392;9.950;2023-04-06T01:51:29;5.00;85.20
580;DHT22;276;48.392;9.950;2023-04-06T01:53:57;5.10;85.40
580;DHT22;276;48.392;9.950;2023-04-06T01:56:27;5.00;85.40
580;DHT22;276;48.392;9.950;2023-04-06T01:58:53;5.00;85.50
580;DHT22;276;48.392;9.950;2023-04-06T02:01:21;5.00;85.50
580;DHT22;276;48.392;9.950;2023-04-06T02:03:49;5.00;85.70
580;DHT22;276;48.392;9.950;2023-04-06T02:06:15;5.00;85.70
580;DHT22;276;48.392;9.950;2023-04-06T02:08:45;5.00;85.70
580;DHT22;276;48.392;9.950;2023-04-06T02:11:13;5.00;85.70
580;DHT22;276;48.392;9.950;2023-04-06T02:13:43;5.00;85.70
580;DHT22;276;48.392;9.950;2023-04-06T02:16:09;5.00;85.60
580;DHT22;276;48.392;9.950;2023-04-06T02:18:35;5.00;85.50
580;DHT22;276;48.392;9.950;2023-04-06T02:21:02;5.00;85.50
580;DHT22;276;48.392;9.950;2023-04-06T02:23:28;5.00;85.30
580;DHT22;276;48.392;9.950;2023-04-06T02:25:54;5.00;85.50
580;DHT22;276;48.392;9.950;2023-04-06T02:28:22;4.90;85.40
580;DHT22;276;48.392;9.950;2023-04-06T02:30:52;4.90;85.40
580;DHT22;276;48.392;9.950;2023-04-06T02:33:20;4.90;85.70
580;DHT22;276;48.392;9.950;2023-04-06T02:35:48;4.80;85.70
580;DHT22;276;48.392;9.950;2023-04-06T02:38:16;4.80;85.80
580;DHT22;276;48.392;9.950;2023-04-06T02:40:44;4.80;85.90
580;DHT22;276;48.392;9.950;2023-04-06T02:43:12;4.80;85.90
580;DHT22;276;48.392;9.950;2023-04-06T02:45:40;4.80;85.90
580;DHT22;276;48.392;9.950;2023-04-06T02:48:06;4.80;86.00
580;DHT22;276;48.392;9.950;2023-04-06T02:50:36;4.70;85.90
580;DHT22;276;48.392;9.950;2023-04-06T02:53:04;4.70;85.90
580;DHT22;276;48.392;9.950;2023-04-06T02:55:29;4.70;85.90
580;DHT22;276;48.392;9.950;2023-04-06T02:57:55;4.70;85.90
580;DHT22;276;48.392;9.950;2023-04-06T03:00:23;4.70;86.00
580;DHT22;276;48.392;9.950;2023-04-06T03:02:51;4.70;86.10
580;DHT22;276;48.392;9.950;2023-04-06T03:05:17;4.60;86.00
580;DHT22;276;48.392;9.950;2023-04-06T03:07:43;4.60;86.20
580;DHT22;276;48.392;9.950;2023-04-06T03:10:11;4.60;86.20
580;DHT22;276;48.392;9.950;2023-04-06T03:12:39;4.60;86.20
580;DHT22;276;48.392;9.950;2023-04-06T03:15:07;4.60;86.20
580;DHT22;276;48.392;9.950;2023-04-06T03:17:33;4.50;86.20
580;DHT22;276;48.392;9.950;2023-04-06T03:20:01;4.50;86.20
580;DHT22;276;48.392;9.950;2023-04-06T03:22:27;4.50;86.40
580;DHT22;276;48.392;9.950;2023-04-06T03:24:55;4.50;86.50
580;DHT22;276;48.392;9.950;2023-04-06T03:27:23;4.50;86.50
580;DHT22;276;48.392;9.950;2023-04-06T03:29:48;4.50;86.60
580;DHT22;276;48.392;9.950;2023-04-06T03:32:14;4.50;86.40
580;DHT22;276;48.392;9.950;2023-04-06T03:34:42;4.50;86.20
580;DHT22;276;48.392;9.950;2023-04-06T03:37:10;4.50;86.00
580;DHT22;276;48.392;9.950;2023-04-06T03:39:38;4.50;86.00
580;DHT22;276;48.392;9.950;2023-04-06T03:42:04;4.50;86.00
580;DHT22;276;48.392;9.950;2023-04-06T03:44:29;4.50;86.00
580;DHT22;276;48.392;9.950;2023-04-06T03:46:55;4.50;86.10
580;DHT22;276;48.392;9.950;2023-04-06T03:49:23;4.50;86.00
580;DHT22;276;48.392;9.950;2023-04-06T03:51:51;4.50;86.00
580;DHT22;276;48.392;9.950;2023-04-06T03:54:16;4.40;86.10
580;DHT22;276;48.392;9.950;2023-04-06T03:56:42;4.40;86.30
580;DHT22;276;48.392;9.950;2023-04-06T03:59:10;4.30;86.20
580;DHT22;276;48.392;9.950;2023-04-06T04:01:38;4.30;86.50
580;DHT22;276;48.392;9.950;2023-04-06T04:04:04;4.20;86.60
580;DHT22;276;48.392;9.950;2023-04-06T04:06:30;4.10;86.80
580;DHT22;276;48.392;9.950;2023-04-06T04:08:58;4.10;87.00
580;DHT22;276;48.392;9.950;2023-04-06T04:11:23;4.10;87.10
580;DHT22;276;48.392;9.950;2023-04-06T04:13:49;4.20;87.20
580;DHT22;276;48.392;9.950;2023-04-06T04:16:20;4.20;87.30
580;DHT22;276;48.392;9.950;2023-04-06T04:18:47;4.10;87.10
580;DHT22;276;48.392;9.950;2023-04-06T04:21:16;4.10;87.00
580;DHT22;276;48.392;9.950;2023-04-06T04:23:42;4.10;87.10
580;DHT22;276;48.392;9.950;2023-04-06T04:26:10;4.10;87.00
580;DHT22;276;48.392;9.950;2023-04-06T04:28:38;4.10;86.90
580;DHT22;276;48.392;9.950;2023-04-06T04:31:08;4.10;86.90
580;DHT22;276;48.392;9.950;2023-04-06T04:33:36;4.10;87.20
580;DHT22;276;48.392;9.950;2023-04-06T04:36:07;4.10;87.20
580;DHT22;276;48.392;9.950;2023-04-06T04:38:35;4.00;87.10
580;DHT22;276;48.392;9.950;2023-04-06T04:41:01;4.00;87.30
580;DHT22;276;48.392;9.950;2023-04-06T04:43:29;4.00;87.40
580;DHT22;276;48.392;9.950;2023-04-06T04:45:59;4.00;87.50
580;DHT22;276;48.392;9.950;2023-04-06T04:48:24;4.00;87.60
580;DHT22;276;48.392;9.950;2023-04-06T04:50:53;4.00;87.50
580;DHT22;276;48.392;9.950;2023-04-06T04:53:20;4.00;87.50
580;DHT22;276;48.392;9.950;2023-04-06T04:55:46;4.00;87.40
580;DHT22;276;48.392;9.950;2023-04-06T04:58:14;4.00;87.40
580;DHT22;276;48.392;9.950;2023-04-06T05:00:45;4.00;87.20
580;DHT22;276;48.392;9.950;2023-04-06T05:03:20;4.00;87.20
580;DHT22;276;48.392;9.950;2023-04-06T05:05:46;4.00;87.40
580;DHT22;276;48.392;9.950;2023-04-06T05:08:14;4.00;87.40
580;DHT22;276;48.392;9.950;2023-04-06T05:10:40;4.00;87.40
580;DHT22;276;48.392;9.950;2023-04-06T05:13:10;4.10;87.60
580;DHT22;276;48.392;9.950;2023-04-06T05:15:42;4.10;87.60
580;DHT22;276;48.392;9.950;2023-04-06T05:18:08;4.10;87.70
580;DHT22;276;48.392;9.950;2023-04-06T05:20:38;4.20;87.90
580;DHT22;276;48.392;9.950;2023-04-06T05:23:04;4.20;87.70
580;DHT22;276;48.392;9.950;2023-04-06T05:25:32;4.20;87.70
580;DHT22;276;48.392;9.950;2023-04-06T05:28:00;4.30;87.80
580;DHT22;276;48.392;9.950;2023-04-06T05:30:26;4.30;87.70
580;DHT22;276;48.392;9.950;2023-04-06T05:32:56;4.30;87.70
580;DHT22;276;48.392;9.950;2023-04-06T05:35:22;4.40;87.90
580;DHT22;276;48.392;9.950;2023-04-06T05:37:48;4.40;88.00
580;DHT22;276;48.392;9.950;2023-04-06T05:40:18;4.40;88.00
580;DHT22;276;48.392;9.950;2023-04-06T05:42:46;4.50;88.20
580;DHT22;276;48.392;9.950;2023-04-06T05:45:12;4.50;88.20
580;DHT22;276;48.392;9.950;2023-04-06T05:47:44;4.60;88.40
580;DHT22;276;48.392;9.950;2023-04-06T05:50:15;4.60;88.40
580;DHT22;276;48.392;9.950;2023-04-06T05:52:41;4.80;88.50
580;DHT22;276;48.392;9.950;2023-04-06T05:55:09;4.80;88.50
580;DHT22;276;48.392;9.950;2023-04-06T05:57:35;4.80;88.30
580;DHT22;276;48.392;9.950;2023-04-06T06:00:05;4.90;88.20
580;DHT22;276;48.392;9.950;2023-04-06T06:02:37;5.00;87.90
580;DHT22;276;48.392;9.950;2023-04-06T06:05:07;5.10;87.90
580;DHT22;276;48.392;9.950;2023-04-06T06:07:36;5.20;87.70
580;DHT22;276;48.392;9.950;2023-04-06T06:10:04;5.30;87.50
580;DHT22;276;48.392;9.950;2023-04-06T06:12:30;5.40;87.40
580;DHT22;276;48.392;9.950;2023-04-06T06:14:58;5.40;87.20
580;DHT22;276;48.392;9.950;2023-04-06T06:17:24;5.50;87.10
580;DHT22;276;48.392;9.950;2023-04-06T06:19:50;5.50;87.10
580;DHT22;276;48.392;9.950;2023-04-06T06:22:19;5.60;87.20
580;DHT22;276;48.392;9.950;2023-04-06T06:24:45;5.70;87.40
580;DHT22;276;48.392;9.950;2023-04-06T06:27:15;5.80;87.20
580;DHT22;276;48.392;9.950;2023-04-06T06:29:43;5.90;87.20
580;DHT22;276;48.392;9.950;2023-04-06T06:32:09;6.00;87.20
580;DHT22;276;48.392;9.950;2023-04-06T06:34:35;6.10;87.00
580;DHT22;276;48.392;9.950;2023-04-06T06:37:01;6.10;86.70
580;DHT22;276;48.392;9.950;2023-04-06T06:39:27;6.20;86.70
580;DHT22;276;48.392;9.950;2023-04-06T06:41:53;6.30;86.80
580;DHT22;276;48.392;9.950;2023-04-06T06:44:22;6.40;86.80
580;DHT22;276;48.392;9.950;2023-04-06T06:46:48;6.50;86.70
580;DHT22;276;48.392;9.950;2023-04-06T06:49:14;6.50;86.50
580;DHT22;276;48.392;9.950;2023-04-06T06:51:40;6.60;86.50
580;DHT22;276;48.392;9.950;2023-04-06T06:54:08;6.70;86.50
580;DHT22;276;48.392;9.950;2023-04-06T06:56:38;6.80;86.60
580;DHT22;276;48.392;9.950;2023-04-06T06:59:05;6.90;87.00
580;DHT22;276;48.392;9.950;2023-04-06T07:01:32;7.00;87.00
580;DHT22;276;48.392;9.950;2023-04-06T07:03:59;7.10;87.00
580;DHT22;276;48.392;9.950;2023-04-06T07:06:27;7.10;86.90
580;DHT22;276;48.392;9.950;2023-04-06T07:08:55;7.20;86.90
580;DHT22;276;48.392;9.950;2023-04-06T07:11:23;7.30;86.70
580;DHT22;276;48.392;9.950;2023-04-06T07:13:49;7.40;86.50
580;DHT22;276;48.392;9.950;2023-04-06T07:16:15;7.50;86.30
580;DHT22;276;48.392;9.950;2023-04-06T07:18:43;7.50;86.30
580;DHT22;276;48.392;9.950;2023-04-06T07:21:11;7.50;86.20
580;DHT22;276;48.392;9.950;2023-04-06T07:23:37;7.70;86.40
580;DHT22;276;48.392;9.950;2023-04-06T07:26:06;7.70;86.40
580;DHT22;276;48.392;9.950;2023-04-06T07:28:36;7.80;86.70
580;DHT22;276;48.392;9.950;2023-04-06T07:31:04;7.90;86.80
580;DHT22;276;48.392;9.950;2023-04-06T07:33:34;8.10;87.00
580;DHT22;276;48.392;9.950;2023-04-06T07:36:04;8.20;87.40
580;DHT22;276;48.392;9.950;2023-04-06T07:38:35;8.30;87.20
580;DHT22;276;48.392;9.950;2023-04-06T07:41:03;8.30;86.00
580;DHT22;276;48.392;9.950;2023-04-06T07:43:31;8.30;85.70
580;DHT22;276;48.392;9.950;2023-04-06T07:45:59;8.40;86.10
580;DHT22;276;48.392;9.950;2023-04-06T07:48:26;8.50;86.00
580;DHT22;276;48.392;9.950;2023-04-06T07:50:51;8.60;86.10
580;DHT22;276;48.392;9.950;2023-04-06T07:53:17;8.60;85.00
580;DHT22;276;48.392;9.950;2023-04-06T07:55:48;8.60;84.60
580;DHT22;276;48.392;9.950;2023-04-06T07:58:13;8.70;85.00
580;DHT22;276;48.392;9.950;2023-04-06T08:00:41;8.70;84.20
580;DHT22;276;48.392;9.950;2023-04-06T08:03:09;8.70;84.50
580;DHT22;276;48.392;9.950;2023-04-06T08:05:35;8.80;83.60
580;DHT22;276;48.392;9.950;2023-04-06T08:08:01;8.70;82.60
580;DHT22;276;48.392;9.950;2023-04-06T08:10:33;8.60;83.20
580;DHT22;276;48.392;9.950;2023-04-06T08:13:00;8.60;83.70
580;DHT22;276;48.392;9.950;2023-04-06T08:15:25;8.60;84.00
580;DHT22;276;48.392;9.950;2023-04-06T08:17:51;8.70;84.90
580;DHT22;276;48.392;9.950;2023-04-06T08:20:17;8.70;85.10
580;DHT22;276;48.392;9.950;2023-04-06T08:22:43;8.70;85.60
580;DHT22;276;48.392;9.950;2023-04-06T08:25:11;8.70;85.70
580;DHT22;276;48.392;9.950;2023-04-06T08:27:41;8.80;85.10
580;DHT22;276;48.392;9.950;2023-04-06T08:30:10;8.90;84.50
580;DHT22;276;48.392;9.950;2023-04-06T08:32:40;9.00;85.20
580;DHT22;276;48.392;9.950;2023-04-06T08:35:06;9.20;85.70
580;DHT22;276;48.392;9.950;2023-04-06T08:37:33;9.30;84.80
580;DHT22;276;48.392;9.950;2023-04-06T08:40:01;9.50;84.50
580;DHT22;276;48.392;9.950;2023-04-06T08:42:32;9.50;82.20
580;DHT22;276;48.392;9.950;2023-04-06T08:45:00;9.50;80.40
580;DHT22;276;48.392;9.950;2023-04-06T08:47:26;9.50;81.70
580;DHT22;276;48.392;9.950;2023-04-06T08:49:53;9.60;82.20
580;DHT22;276;48.392;9.950;2023-04-06T08:52:20;9.70;82.50
580;DHT22;276;48.392;9.950;2023-04-06T08:54:45;9.90;82.30
580;DHT22;276;48.392;9.950;2023-04-06T08:57:20;10.00;79.30
580;DHT22;276;48.392;9.950;2023-04-06T08:59:51;10.10;80.10
580;DHT22;276;48.392;9.950;2023-04-06T09:02:22;10.30;79.70
580;DHT22;276;48.392;9.950;2023-04-06T09:04:55;10.50;79.00
580;DHT22;276;48.392;9.950;2023-04-06T09:07:23;10.70;79.30
580;DHT22;276;48.392;9.950;2023-04-06T09:09:51;11.00;78.50
580;DHT22;276;48.392;9.950;2023-04-06T09:14:52;11.30;76.50
580;DHT22;276;48.392;9.950;2023-04-06T09:17:31;11.40;76.90
580;DHT22;276;48.392;9.950;2023-04-06T09:20:03;11.70;76.40
580;DHT22;276;48.392;9.950;2023-04-06T09:22:37;11.80;75.70
580;DHT22;276;48.392;9.950;2023-04-06T09:25:03;12.10;74.20
580;DHT22;276;48.392;9.950;2023-04-06T09:27:33;12.20;73.00
580;DHT22;276;48.392;9.950;2023-04-06T09:30:07;12.10;69.50
580;DHT22;276;48.392;9.950;2023-04-06T09:32:50;12.20;70.50
580;DHT22;276;48.392;9.950;2023-04-06T09:35:19;12.20;67.60
580;DHT22;276;48.392;9.950;2023-04-06T09:37:49;12.20;68.30
580;DHT22;276;48.392;9.950;2023-04-06T09:40:15;12.30;67.40
580;DHT22;276;48.392;9.950;2023-04-06T09:42:45;12.50;67.00
580;DHT22;276;48.392;9.950;2023-04-06T09:45:14;12.50;66.40
580;DHT22;276;48.392;9.950;2023-04-06T09:47:45;12.50;66.30
580;DHT22;276;48.392;9.950;2023-04-06T09:50:13;12.50;65.80
580;DHT22;276;48.392;9.950;2023-04-06T09:52:50;12.50;63.20
580;DHT22;276;48.392;9.950;2023-04-06T09:55:42;12.60;63.30
580;DHT22;276;48.392;9.950;2023-04-06T09:58:13;12.80;63.00
580;DHT22;276;48.392;9.950;2023-04-06T10:00:48;12.90;59.30
580;DHT22;276;48.392;9.950;2023-04-06T10:06:01;13.10;59.30
580;DHT22;276;48.392;9.950;2023-04-06T10:08:33;13.10;58.90
580;DHT22;276;48.392;9.950;2023-04-06T10:11:11;13.10;59.60
580;DHT22;276;48.392;9.950;2023-04-06T10:13:37;13.10;58.50
580;DHT22;276;48.392;9.950;2023-04-06T10:16:06;13.30;57.80
580;DHT22;276;48.392;9.950;2023-04-06T10:18:39;13.40;58.00
580;DHT22;276;48.392;9.950;2023-04-06T10:21:12;13.60;58.10
580;DHT22;276;48.392;9.950;2023-04-06T10:23:46;13.60;57.10
580;DHT22;276;48.392;9.950;2023-04-06T10:26:19;13.80;58.80
580;DHT22;276;48.392;9.950;2023-04-06T10:28:46;14.00;59.20
580;DHT22;276;48.392;9.950;2023-04-06T10:31:14;14.20;58.60
580;DHT22;276;48.392;9.950;2023-04-06T10:33:41;14.20;57.10
580;DHT22;276;48.392;9.950;2023-04-06T10:38:38;14.20;57.20
580;DHT22;276;48.392;9.950;2023-04-06T10:41:09;14.20;57.30
580;DHT22;276;48.392;9.950;2023-04-06T10:43:37;14.40;57.40
580;DHT22;276;48.392;9.950;2023-04-06T10:46:07;14.50;56.80
580;DHT22;276;48.392;9.950;2023-04-06T10:48:40;14.50;55.40
580;DHT22;276;48.392;9.950;2023-04-06T10:51:16;14.50;55.20
580;DHT22;276;48.392;9.950;2023-04-06T10:53:44;14.40;53.40
580;DHT22;276;48.392;9.950;2023-04-06T10:56:17;14.20;53.90
580;DHT22;276;48.392;9.950;2023-04-06T10:58:47;14.00;54.00
580;DHT22;276;48.392;9.950;2023-04-06T11:01:19;14.00;55.90
580;DHT22;276;48.392;9.950;2023-04-06T11:03:50;14.20;56.80
580;DHT22;276;48.392;9.950;2023-04-06T11:06:20;14.30;54.80
580;DHT22;276;48.392;9.950;2023-04-06T11:08:51;14.30;53.30
580;DHT22;276;48.392;9.950;2023-04-06T11:11:19;14.20;54.30
580;DHT22;276;48.392;9.950;2023-04-06T11:13:48;14.30;54.80
580;DHT22;276;48.392;9.950;2023-04-06T11:16:16;14.30;54.60
580;DHT22;276;48.392;9.950;2023-04-06T11:21:31;14.40;54.80
580;DHT22;276;48.392;9.950;2023-04-06T11:26:37;14.70;54.90
580;DHT22;276;48.392;9.950;2023-04-06T11:29:04;14.70;54.60
580;DHT22;276;48.392;9.950;2023-04-06T11:31:32;14.60;54.30
580;DHT22;276;48.392;9.950;2023-04-06T11:34:09;14.70;55.20
580;DHT22;276;48.392;9.950;2023-04-06T11:36:40;14.80;56.50
580;DHT22;276;48.392;9.950;2023-04-06T11:39:07;15.00;56.60
580;DHT22;276;48.392;9.950;2023-04-06T11:41:33;15.20;55.90
580;DHT22;276;48.392;9.950;2023-04-06T11:44:01;15.30;55.50
580;DHT22;276;48.392;9.950;2023-04-06T11:46:30;15.20;53.00
580;DHT22;276;48.392;9.950;2023-04-06T11:49:00;14.90;52.90
580;DHT22;276;48.392;9.950;2023-04-06T11:51:26;14.90;54.30
580;DHT22;276;48.392;9.950;2023-04-06T11:53:54;14.90;55.30
580;DHT22;276;48.392;9.950;2023-04-06T11:56:29;15.10;55.60
580;DHT22;276;48.392;9.950;2023-04-06T11:58:56;15.10;54.30
580;DHT22;276;48.392;9.950;2023-04-06T12:01:22;15.10;53.70
580;DHT22;276;48.392;9.950;2023-04-06T12:03:49;14.90;54.10
580;DHT22;276;48.392;9.950;2023-04-06T12:06:15;14.80;55.00
580;DHT22;276;48.392;9.950;2023-04-06T12:08:43;14.90;55.20
580;DHT22;276;48.392;9.950;2023-04-06T12:11:12;15.00;54.60
580;DHT22;276;48.392;9.950;2023-04-06T12:13:42;15.10;54.60
580;DHT22;276;48.392;9.950;2023-04-06T12:16:10;15.00;54.30
580;DHT22;276;48.392;9.950;2023-04-06T12:18:38;15.20;55.30
580;DHT22;276;48.392;9.950;2023-04-06T12:21:04;15.20;54.50
580;DHT22;276;48.392;9.950;2023-04-06T12:23:32;15.20;53.60
580;DHT22;276;48.392;9.950;2023-04-06T12:25:58;15.30;54.10
580;DHT22;276;48.392;9.950;2023-04-06T12:28:23;15.30;54.00
580;DHT22;276;48.392;9.950;2023-04-06T12:30:52;15.40;54.50
580;DHT22;276;48.392;9.950;2023-04-06T12:33:20;15.40;53.30
580;DHT22;276;48.392;9.950;2023-04-06T12:35:46;15.30;52.60
580;DHT22;276;48.392;9.950;2023-04-06T12:38:14;15.30;53.80
580;DHT22;276;48.392;9.950;2023-04-06T12:40:42;15.20;54.10
580;DHT22;276;48.392;9.950;2023-04-06T12:43:10;15.20;53.60
580;DHT22;276;48.392;9.950;2023-04-06T12:45:43;15.30;54.40
580;DHT22;276;48.392;9.950;2023-04-06T12:48:11;15.20;53.20
580;DHT22;276;48.392;9.950;2023-04-06T12:50:41;15.20;53.50
580;DHT22;276;48.392;9.950;2023-04-06T12:53:12;15.20;53.90
580;DHT22;276;48.392;9.950;2023-04-06T12:55:37;15.20;53.50
580;DHT22;276;48.392;9.950;2023-04-06T12:58:03;15.10;52.80
580;DHT22;276;48.392;9.950;2023-04-06T13:00:31;15.10;53.30
580;DHT22;276;48.392;9.950;2023-04-06T13:03:00;15.10;53.10
580;DHT22;276;48.392;9.950;2023-04-06T13:05:25;15.10;53.10
580;DHT22;276;48.392;9.950;2023-04-06T13:07:51;15.20;53.30
580;DHT22;276;48.392;9.950;2023-04-06T13:10:19;15.10;51.70
580;DHT22;276;48.392;9.950;2023-04-06T13:12:45;14.80;51.80
580;DHT22;276;48.392;9.950;2023-04-06T13:15:13;14.70;52.10
580;DHT22;276;48.392;9.950;2023-04-06T13:17:41;14.60;52.60
580;DHT22;276;48.392;9.950;2023-04-06T13:20:09;14.60;53.00
580;DHT22;276;48.392;9.950;2023-04-06T13:22:39;14.60;53.20
580;DHT22;276;48.392;9.950;2023-04-06T13:25:10;14.60;53.00
580;DHT22;276;48.392;9.950;2023-04-06T13:27:40;14.70;53.00
580;DHT22;276;48.392;9.950;2023-04-06T13:30:06;14.70;52.50
580;DHT22;276;48.392;9.950;2023-04-06T13:32:35;14.70;52.60
580;DHT22;276;48.392;9.950;2023-04-06T13:35:03;14.70;52.90
580;DHT22;276;48.392;9.950;2023-04-06T13:37:34;14.70;52.20
580;DHT22;276;48.392;9.950;2023-04-06T13:40:04;14.50;51.50
580;DHT22;276;48.392;9.950;2023-04-06T13:42:32;14.30;52.00
580;DHT22;276;48.392;9.950;2023-04-06T13:45:01;14.20;52.10
580;DHT22;276;48.392;9.950;2023-04-06T13:47:29;14.10;52.30
580;DHT22;276;48.392;9.950;2023-04-06T13:49:55;14.00;52.60
580;DHT22;276;48.392;9.950;2023-04-06T13:52:21;14.10;53.50
580;DHT22;276;48.392;9.950;2023-04-06T13:54:50;14.20;53.10
580;DHT22;276;48.392;9.950;2023-04-06T13:57:15;14.30;53.20
580;DHT22;276;48.392;9.950;2023-04-06T13:59:41;14.30;52.50
580;DHT22;276;48.392;9.950;2023-04-06T14:02:10;14.20;52.00
580;DHT22;276;48.392;9.950;2023-04-06T14:04:41;14.20;52.50
580;DHT22;276;48.392;9.950;2023-04-06T14:07:06;14.30;52.80
580;DHT22;276;48.392;9.950;2023-04-06T14:09:33;14.30;53.00
580;DHT22;276;48.392;9.950;2023-04-06T14:12:03;14.30;52.60
580;DHT22;276;48.392;9.950;2023-04-06T14:14:33;14.30;52.60
580;DHT22;276;48.392;9.950;2023-04-06T14:17:03;14.30;53.30
580;DHT22;276;48.392;9.950;2023-04-06T14:19:29;14.30;53.60
580;DHT22;276;48.392;9.950;2023-04-06T14:21:59;14.40;53.70
580;DHT22;276;48.392;9.950;2023-04-06T14:24:27;14.30;53.60
580;DHT22;276;48.392;9.950;2023-04-06T14:26:55;14.40;54.20
580;DHT22;276;48.392;9.950;2023-04-06T14:29:22;14.40;53.80
580;DHT22;276;48.392;9.950;2023-04-06T14:31:52;14.40;52.90
580;DHT22;276;48.392;9.950;2023-04-06T14:34:27;14.30;52.70
580;DHT22;276;48.392;9.950;2023-04-06T14:36:55;14.20;53.10
580;DHT22;276;48.392;9.950;2023-04-06T14:39:21;14.20;53.70
580;DHT22;276;48.392;9.950;2023-04-06T14:41:47;14.10;52.70
580;DHT22;276;48.392;9.950;2023-04-06T14:44:15;14.10;52.70
580;DHT22;276;48.392;9.950;2023-04-06T14:46:42;14.00;52.50
580;DHT22;276;48.392;9.950;2023-04-06T14:49:10;14.00;53.00
580;DHT22;276;48.392;9.950;2023-04-06T14:51:38;14.10;53.30
580;DHT22;276;48.392;9.950;2023-04-06T14:54:06;14.10;53.60
580;DHT22;276;48.392;9.950;2023-04-06T14:56:34;14.20;52.70
580;DHT22;276;48.392;9.950;2023-04-06T14:59:03;14.20;53.10
580;DHT22;276;48.392;9.950;2023-04-06T15:01:34;14.20;53.30
580;DHT22;276;48.392;9.950;2023-04-06T15:04:02;14.30;53.90
580;DHT22;276;48.392;9.950;2023-04-06T15:06:30;14.40;54.20
580;DHT22;276;48.392;9.950;2023-04-06T15:08:56;14.30;53.30
580;DHT22;276;48.392;9.950;2023-04-06T15:11:24;14.20;52.30
580;DHT22;276;48.392;9.950;2023-04-06T15:13:52;14.00;52.60
580;DHT22;276;48.392;9.950;2023-04-06T15:16:20;13.90;52.60
580;DHT22;276;48.392;9.950;2023-04-06T15:18:48;13.70;52.50
580;DHT22;276;48.392;9.950;2023-04-06T15:21:14;13.60;52.70
580;DHT22;276;48.392;9.950;2023-04-06T15:23:39;13.70;53.00
580;DHT22;276;48.392;9.950;2023-04-06T15:26:07;13.80;53.20
580;DHT22;276;48.392;9.950;2023-04-06T15:28:33;13.80;53.30
580;DHT22;276;48.392;9.950;2023-04-06T15:30:59;13.90;53.90
580;DHT22;276;48.392;9.950;2023-04-06T15:33:31;14.00;54.00
580;DHT22;276;48.392;9.950;2023-04-06T15:35:56;14.00;53.80
580;DHT22;276;48.392;9.950;2023-04-06T15:38:24;14.10;53.60
580;DHT22;276;48.392;9.950;2023-04-06T15:40:56;14.00;53.50
580;DHT22;276;48.392;9.950;2023-04-06T15:43:24;14.00;53.70
580;DHT22;276;48.392;9.950;2023-04-06T15:45:50;14.10;53.90
580;DHT22;276;48.392;9.950;2023-04-06T15:48:18;14.00;53.60
580;DHT22;276;48.392;9.950;2023-04-06T15:50:46;14.00;53.50
580;DHT22;276;48.392;9.950;2023-04-06T15:53:14;13.90;53.20
580;DHT22;276;48.392;9.950;2023-04-06T15:55:40;13.90;53.40
580;DHT22;276;48.392;9.950;2023-04-06T15:58:08;13.80;53.70
580;DHT22;276;48.392;9.950;2023-04-06T16:00:35;13.80;53.50
580;DHT22;276;48.392;9.950;2023-04-06T16:03:01;13.80;53.30
580;DHT22;276;48.392;9.950;2023-04-06T16:05:34;13.80;53.50
580;DHT22;276;48.392;9.950;2023-04-06T16:08:02;13.70;53.70
580;DHT22;276;48.392;9.950;2023-04-06T16:10:30;13.70;54.00
580;DHT22;276;48.392;9.950;2023-04-06T16:12:59;13.70;54.30
580;DHT22;276;48.392;9.950;2023-04-06T16:15:27;13.70;54.40
580;DHT22;276;48.392;9.950;2023-04-06T16:17:53;13.70;54.30
580;DHT22;276;48.392;9.950;2023-04-06T16:20:21;13.70;54.20
580;DHT22;276;48.392;9.950;2023-04-06T16:22:47;13.70;54.40
580;DHT22;276;48.392;9.950;2023-04-06T16:25:14;13.70;54.60
580;DHT22;276;48.392;9.950;2023-04-06T16:27:42;13.60;54.30
580;DHT22;276;48.392;9.950;2023-04-06T16:30:08;13.50;53.90
580;DHT22;276;48.392;9.950;2023-04-06T16:32:36;13.40;54.20
580;DHT22;276;48.392;9.950;2023-04-06T16:35:04;13.40;54.40
580;DHT22;276;48.392;9.950;2023-04-06T16:37:30;13.40;54.30
580;DHT22;276;48.392;9.950;2023-04-06T16:39:56;13.40;54.60
580;DHT22;276;48.392;9.950;2023-04-06T16:42:22;13.40;54.60
580;DHT22;276;48.392;9.950;2023-04-06T16:44:50;13.40;54.30
580;DHT22;276;48.392;9.950;2023-04-06T16:47:18;13.40;53.70
580;DHT22;276;48.392;9.950;2023-04-06T16:49:46;13.30;53.80
580;DHT22;276;48.392;9.950;2023-04-06T16:52:12;13.20;54.00
580;DHT22;276;48.392;9.950;2023-04-06T16:54:40;13.20;54.70
580;DHT22;276;48.392;9.950;2023-04-06T16:57:08;13.20;54.30
580;DHT22;276;48.392;9.950;2023-04-06T16:59:34;13.10;54.40
580;DHT22;276;48.392;9.950;2023-04-06T17:01:59;13.20;54.60